createdAt,value
2023-03-27T00:01:17.785Z,55.49
2023-03-27T00:03:44.840Z,55.64
2023-03-27T00:06:16.537Z,55.70
2023-03-27T00:08:44.573Z,55.71
2023-03-27T00:11:11.756Z,56.03
2023-03-27T00:13:49.285Z,55.76
2023-03-27T00:16:19.923Z,55.90
2023-03-27T00:18:46.705Z,56.10
2023-03-27T00:21:13.419Z,55.99
2023-03-27T00:23:40.549Z,55.92
2023-03-27T00:26:07.584Z,56.20
2023-03-27T00:28:35.429Z,55.96
2023-03-27T00:31:02.637Z,56.14
2023-03-27T00:33:29.780Z,56.29
2023-03-27T00:35:56.650Z,56.08
2023-03-27T00:38:24.283Z,56.23
2023-03-27T00:40:53.530Z,56.25
2023-03-27T00:43:28.488Z,56.32
2023-03-27T00:46:03.351Z,56.32
2023-03-27T00:48:34.672Z,56.63
2023-03-27T00:51:01.672Z,56.53
2023-03-27T00:53:29.869Z,56.13
2023-03-27T00:56:01.170Z,56.63
2023-03-27T00:58:42.389Z,56.33
2023-03-27T01:01:12.949Z,56.50
2023-03-27T01:03:41.651Z,56.52
2023-03-27T01:06:10.993Z,57.03
2023-03-27T01:08:37.951Z,56.69
2023-03-27T01:11:32.570Z,57.03
2023-03-27T01:14:01.954Z,56.79
2023-03-27T01:17:08.391Z,57.01
2023-03-27T01:20:10.008Z,56.96
2023-03-27T01:23:04.483Z,57.29
2023-03-27T01:25:40.928Z,57.55
2023-03-27T01:28:23.407Z,57.60
2023-03-27T01:31:07.248Z,57.44
2023-03-27T01:33:52.747Z,57.57
2023-03-27T01:36:37.341Z,57.76
2023-03-27T01:39:30.503Z,57.62
2023-03-27T01:42:18.364Z,57.76
2023-03-27T01:44:51.753Z,58.08
2023-03-27T01:47:26.207Z,58.14
2023-03-27T01:50:08.088Z,58.55
2023-03-27T01:52:39.526Z,58.30
2023-03-27T01:55:11.468Z,58.10
2023-03-27T01:57:50.173Z,58.18
2023-03-27T02:00:22.421Z,58.39
2023-03-27T02:02:57.156Z,58.57
2023-03-27T02:05:44.888Z,58.59
2023-03-27T02:08:18.376Z,58.51
2023-03-27T02:10:50.736Z,58.72
2023-03-27T02:13:22.500Z,58.58
2023-03-27T02:15:50.844Z,58.58
2023-03-27T02:18:29.504Z,58.65
2023-03-27T02:20:56.263Z,58.58
2023-03-27T02:23:23.329Z,58.70
2023-03-27T02:25:51.566Z,59.06
2023-03-27T02:28:42.180Z,58.83
2023-03-27T02:31:33.141Z,58.63
2023-03-27T02:34:31.566Z,58.95
2023-03-27T02:37:32.364Z,58.82
2023-03-27T02:40:55.977Z,59.06
2023-03-27T02:44:01.760Z,58.58
2023-03-27T02:47:01.927Z,59.01
2023-03-27T02:49:34.853Z,59.10
2023-03-27T02:52:07.658Z,58.93
2023-03-27T02:54:47.352Z,59.35
2023-03-27T02:57:18.688Z,59.34
2023-03-27T03:00:20.284Z,59.18
2023-03-27T03:03:13.902Z,59.31
2023-03-27T03:05:41.230Z,59.29
2023-03-27T03:08:10.230Z,59.54
2023-03-27T03:10:44.501Z,59.55
2023-03-27T03:13:12.698Z,59.39
2023-03-27T03:15:42.497Z,59.60
2023-03-27T03:18:09.136Z,59.53
2023-03-27T03:20:35.756Z,59.37
2023-03-27T03:23:06.815Z,59.17
2023-03-27T03:25:34.349Z,59.50
2023-03-27T03:28:00.998Z,59.33
2023-03-27T03:30:30.111Z,59.72
2023-03-27T03:33:02.803Z,59.25
2023-03-27T03:35:29.731Z,59.40
2023-03-27T03:37:58.829Z,59.42
2023-03-27T03:40:26.305Z,59.46
2023-03-27T03:42:56.589Z,59.63
2023-03-27T03:45:27.500Z,59.48
2023-03-27T03:47:53.963Z,59.82
2023-03-27T03:50:24.070Z,59.61
2023-03-27T03:52:50.877Z,59.54
2023-03-27T03:55:17.386Z,59.65
2023-03-27T03:57:47.065Z,59.83
2023-03-27T04:00:19.358Z,59.60
2023-03-27T04:02:53.263Z,59.62
2023-03-27T04:05:20.801Z,59.78
2023-03-27T04:07:51.138Z,59.60
2023-03-27T04:10:30.360Z,59.66
2023-03-27T04:12:59.456Z,59.77
2023-03-27T04:15:29.016Z,59.77
2023-03-27T04:17:58.792Z,59.71
2023-03-27T04:20:26.633Z,59.77
2023-03-27T04:22:55.374Z,59.86
2023-03-27T04:25:24.205Z,59.88
2023-03-27T04:27:51.944Z,59.81
2023-03-27T04:30:25.415Z,59.95
2023-03-27T04:33:23.024Z,59.90
2023-03-27T04:36:10.165Z,60.25
2023-03-27T04:38:50.429Z,60.13
2023-03-27T04:41:17.792Z,60.02
2023-03-27T04:43:45.981Z,60.13
2023-03-27T04:46:12.474Z,60.09
2023-03-27T04:48:40.405Z,60.05
2023-03-27T04:51:19.994Z,60.23
2023-03-27T04:53:47.866Z,60.27
2023-03-27T04:56:15.161Z,60.13
2023-03-27T04:58:46.594Z,60.27
2023-03-27T05:01:15.688Z,60.20
2023-03-27T05:04:17.341Z,60.35
2023-03-27T05:07:04.771Z,60.43
2023-03-27T05:09:31.249Z,60.13
2023-03-27T05:11:57.774Z,60.43
2023-03-27T05:14:24.598Z,60.25
2023-03-27T05:16:52.729Z,60.50
2023-03-27T05:19:20.755Z,60.56
2023-03-27T05:21:55.895Z,60.21
2023-03-27T05:24:23.136Z,60.61
2023-03-27T05:26:49.694Z,60.62
2023-03-27T05:29:16.747Z,60.98
2023-03-27T05:31:45.796Z,60.59
2023-03-27T05:34:38.676Z,60.78
2023-03-27T05:37:08.710Z,60.64
2023-03-27T05:39:53.367Z,60.76
2023-03-27T05:42:19.868Z,60.62
2023-03-27T05:44:46.297Z,60.85
2023-03-27T05:47:14.383Z,61.04
2023-03-27T05:49:41.255Z,60.95
2023-03-27T05:52:11.563Z,60.95
2023-03-27T05:54:38.258Z,61.20
2023-03-27T05:57:09.517Z,61.28
2023-03-27T05:59:38.034Z,61.02
2023-03-27T06:02:21.032Z,61.05
2023-03-27T06:04:54.409Z,60.93
2023-03-27T06:07:33.560Z,61.31
2023-03-27T06:10:13.334Z,61.36
2023-03-27T06:12:58.930Z,61.27
2023-03-27T06:15:33.549Z,61.45
2023-03-27T06:18:16.292Z,61.47
2023-03-27T06:20:43.458Z,61.31
2023-03-27T06:23:10.420Z,61.44
2023-03-27T06:25:39.142Z,61.63
2023-03-27T06:28:09.327Z,61.69
2023-03-27T06:30:42.185Z,61.84
2023-03-27T06:33:27.392Z,61.81
2023-03-27T06:36:00.584Z,61.60
2023-03-27T06:38:33.359Z,62.08
2023-03-27T06:41:01.428Z,61.79
2023-03-27T06:43:50.711Z,61.94
2023-03-27T06:46:45.263Z,61.93
2023-03-27T06:49:23.723Z,62.08
2023-03-27T06:51:50.943Z,62.10
2023-03-27T06:54:20.653Z,62.03
2023-03-27T06:56:51.090Z,62.21
2023-03-27T06:59:20.900Z,62.32
2023-03-27T07:01:52.401Z,62.29
2023-03-27T07:04:22.424Z,62.49
2023-03-27T07:07:07.416Z,62.42
2023-03-27T07:09:40.034Z,62.22
2023-03-27T07:12:09.092Z,62.34
2023-03-27T07:14:37.270Z,62.66
2023-03-27T07:17:03.741Z,62.58
2023-03-27T07:19:46.226Z,62.68
2023-03-27T07:22:14.374Z,62.36
2023-03-27T07:24:41.475Z,62.66
2023-03-27T07:27:09.894Z,62.76
2023-03-27T07:29:37.295Z,62.55
2023-03-27T07:32:08.634Z,62.50
2023-03-27T07:34:49.085Z,62.21
2023-03-27T07:37:53.036Z,62.49
2023-03-27T07:40:40.616Z,62.79
2023-03-27T07:43:36.797Z,62.70
2023-03-27T07:46:06.113Z,62.98
2023-03-27T07:48:32.956Z,62.66
2023-03-27T07:51:10.811Z,62.71
2023-03-27T07:53:41.363Z,62.76
2023-03-27T07:56:16.867Z,63.09
2023-03-27T07:58:47.114Z,62.70
2023-03-27T08:01:18.949Z,62.41
2023-03-27T08:03:48.494Z,62.84
2023-03-27T08:06:16.818Z,63.06
2023-03-27T08:08:43.438Z,63.16
2023-03-27T08:11:22.966Z,63.18
2023-03-27T08:13:54.360Z,63.80
2023-03-27T08:16:21.573Z,63.43
2023-03-27T08:18:49.731Z,63.23
2023-03-27T08:21:16.645Z,63.26
2023-03-27T08:23:44.690Z,63.40
2023-03-27T08:26:34.035Z,63.26
2023-03-27T08:29:08.950Z,63.32
2023-03-27T08:31:36.629Z,63.26
2023-03-27T08:34:05.246Z,63.36
2023-03-27T08:36:43.424Z,63.28
2023-03-27T08:39:10.067Z,63.28
2023-03-27T08:41:55.204Z,62.94
2023-03-27T08:44:31.903Z,63.15
2023-03-27T08:47:06.705Z,63.02
2023-03-27T08:49:47.920Z,63.05
2023-03-27T08:52:25.898Z,62.80
2023-03-27T08:55:18.617Z,63.05
2023-03-27T08:57:59.104Z,63.15
2023-03-27T09:00:35.932Z,62.96
2023-03-27T09:03:35.205Z,63.11
2023-03-27T09:06:10.285Z,62.86
2023-03-27T09:09:17.192Z,62.68
2023-03-27T09:11:55.387Z,62.71
2023-03-27T09:14:37.454Z,62.97
2023-03-27T09:17:16.164Z,62.67
2023-03-27T09:19:56.502Z,62.96
2023-03-27T09:22:34.220Z,62.64
2023-03-27T09:25:36.575Z,62.86
2023-03-27T09:28:35.643Z,62.75
2023-03-27T09:31:29.149Z,62.80
2023-03-27T09:34:01.890Z,62.81
2023-03-27T09:36:28.941Z,62.69
2023-03-27T09:39:05.676Z,62.74
2023-03-27T09:41:39.007Z,62.43
2023-03-27T09:44:15.575Z,62.37
2023-03-27T09:46:47.856Z,62.62
2023-03-27T09:49:19.138Z,62.61
2023-03-27T09:51:58.269Z,62.07
2023-03-27T09:54:54.234Z,61.87
2023-03-27T09:57:35.648Z,62.13
2023-03-27T10:00:24.979Z,61.90
2023-03-27T10:03:13.824Z,61.92
2023-03-27T10:05:46.951Z,62.24
2023-03-27T10:08:38.905Z,61.60
2023-03-27T10:11:16.785Z,61.49
2023-03-27T10:13:50.238Z,61.67
2023-03-27T10:16:22.368Z,61.03
2023-03-27T10:19:00.351Z,61.09
2023-03-27T10:21:42.584Z,60.20
2023-03-27T10:24:17.440Z,60.50
2023-03-27T10:27:07.009Z,60.35
2023-03-27T10:29:39.658Z,60.18
2023-03-27T10:32:12.121Z,60.07
2023-03-27T10:35:05.342Z,59.91
2023-03-27T10:38:12.352Z,59.35
2023-03-27T10:41:05.464Z,59.23
2023-03-27T10:43:43.621Z,59.22
2023-03-27T10:46:17.435Z,58.66
2023-03-27T10:49:18.531Z,57.89
2023-03-27T10:52:06.183Z,58.18
2023-03-27T10:55:41.504Z,57.51
2023-03-27T10:58:27.043Z,56.68
2023-03-27T11:01:01.634Z,57.04
2023-03-27T11:03:46.632Z,56.55
2023-03-27T11:06:17.295Z,56.66
2023-03-27T11:09:29.480Z,56.04
2023-03-27T11:12:07.215Z,56.14
2023-03-27T11:14:57.051Z,55.29
2023-03-27T11:17:33.200Z,55.88
2023-03-27T11:20:32.045Z,56.03
2023-03-27T11:23:32.810Z,55.23
2023-03-27T11:26:16.254Z,55.54
2023-03-27T11:29:02.026Z,54.59
2023-03-27T11:31:46.167Z,55.32
2023-03-27T11:34:36.313Z,57.27
2023-03-27T11:37:39.713Z,58.97
2023-03-27T11:40:23.827Z,59.39
2023-03-27T11:42:57.533Z,59.46
2023-03-27T11:45:27.218Z,59.64
2023-03-27T11:48:22.753Z,59.83
2023-03-27T11:51:24.991Z,60.23
2023-03-27T11:54:03.420Z,60.01
2023-03-27T11:56:52.538Z,59.95
2023-03-27T12:00:00.812Z,60.41
2023-03-27T12:02:56.834Z,60.66
2023-03-27T12:05:48.327Z,60.63
2023-03-27T12:08:17.969Z,60.72
2023-03-27T12:10:52.100Z,60.79
2023-03-27T12:14:02.098Z,61.29
2023-03-27T12:17:05.409Z,61.26
2023-03-27T12:20:09.280Z,61.39
2023-03-27T12:22:53.715Z,61.11
2023-03-27T12:26:09.810Z,61.54
2023-03-27T12:29:24.409Z,61.24
2023-03-27T12:32:29.669Z,61.73
2023-03-27T12:35:07.318Z,61.31
2023-03-27T12:38:03.065Z,61.46
2023-03-27T12:40:39.921Z,61.52
2023-03-27T12:43:26.529Z,61.47
2023-03-27T12:46:23.731Z,61.62
2023-03-27T12:48:54.281Z,61.79
2023-03-27T12:51:51.067Z,61.72
2023-03-27T12:54:36.205Z,61.50
2023-03-27T12:57:25.066Z,61.71
2023-03-27T13:00:08.814Z,61.77
2023-03-27T13:02:43.977Z,61.98
2023-03-27T13:05:27.368Z,61.83
2023-03-27T13:08:13.297Z,61.69
2023-03-27T13:11:35.687Z,62.01
2023-03-27T13:14:41.747Z,62.14
2023-03-27T13:17:45.486Z,62.09
2023-03-27T13:20:37.207Z,62.03
2023-03-27T13:23:24.015Z,61.96
2023-03-27T13:26:06.563Z,62.19
2023-03-27T13:28:48.614Z,62.23
2023-03-27T13:31:49.456Z,62.60
2023-03-27T13:34:40.205Z,62.60
2023-03-27T13:37:14.180Z,62.36
2023-03-27T13:40:01.521Z,62.38
2023-03-27T13:42:41.860Z,62.50
2023-03-27T13:45:20.193Z,62.67
2023-03-27T13:48:32.559Z,62.47
2023-03-27T13:51:21.813Z,62.71
2023-03-27T13:54:10.877Z,62.87
2023-03-27T13:57:03.942Z,62.66
2023-03-27T13:59:52.926Z,63.10
2023-03-27T14:02:46.188Z,63.10
2023-03-27T14:05:55.241Z,63.15
2023-03-27T14:08:35.702Z,63.14
2023-03-27T14:11:52.943Z,62.59
2023-03-27T14:15:12.553Z,62.70
2023-03-27T14:17:42.411Z,62.49
2023-03-27T14:20:23.968Z,62.37
2023-03-27T14:22:56.990Z,62.14
2023-03-27T14:25:34.813Z,61.94
2023-03-27T14:28:45.363Z,61.84
2023-03-27T14:31:19.238Z,62.27
2023-03-27T14:34:10.112Z,61.66
2023-03-27T14:36:42.464Z,61.60
2023-03-27T14:39:19.715Z,61.78
2023-03-27T14:41:59.330Z,62.17
2023-03-27T14:44:32.047Z,61.77
2023-03-27T14:47:09.902Z,61.62
2023-03-27T14:49:47.483Z,61.93
2023-03-27T14:52:25.608Z,61.77
2023-03-27T14:55:18.022Z,62.00
2023-03-27T14:57:51.163Z,61.53
2023-03-27T15:00:21.362Z,61.64
2023-03-27T15:02:52.190Z,61.57
2023-03-27T15:05:22.925Z,61.53
2023-03-27T15:07:55.976Z,61.46
2023-03-27T15:10:40.996Z,61.18
2023-03-27T15:13:35.535Z,60.91
2023-03-27T15:16:06.619Z,60.81
2023-03-27T15:18:52.977Z,59.83
2023-03-27T15:21:39.062Z,59.87
2023-03-27T15:24:10.541Z,60.21
2023-03-27T15:26:39.145Z,60.39
2023-03-27T15:29:17.909Z,60.33
2023-03-27T15:31:48.987Z,60.49
2023-03-27T15:34:24.104Z,60.31
2023-03-27T15:36:58.114Z,60.16
2023-03-27T15:39:26.479Z,60.20
2023-03-27T15:41:55.909Z,60.52
2023-03-27T15:44:25.834Z,59.85
2023-03-27T15:46:55.722Z,59.77
2023-03-27T15:49:29.178Z,59.59
2023-03-27T15:51:57.802Z,59.61
2023-03-27T15:54:33.352Z,59.24
2023-03-27T15:57:10.462Z,59.50
2023-03-27T15:59:52.158Z,59.00
2023-03-27T16:02:21.102Z,59.43
2023-03-27T16:04:54.380Z,59.55
2023-03-27T16:07:26.773Z,59.46
2023-03-27T16:10:02.307Z,59.47
2023-03-27T16:12:41.408Z,59.17
2023-03-27T16:15:27.697Z,59.25
2023-03-27T16:17:56.675Z,59.50
2023-03-27T16:20:23.112Z,59.51
2023-03-27T16:22:50.988Z,59.46
2023-03-27T16:25:17.609Z,59.51
2023-03-27T16:27:51.152Z,59.47
2023-03-27T16:30:26.728Z,59.48
2023-03-27T16:32:53.387Z,59.69
2023-03-27T16:35:20.000Z,59.98
2023-03-27T16:37:46.522Z,59.50
2023-03-27T16:40:13.492Z,59.56
2023-03-27T16:42:40.517Z,59.56
2023-03-27T16:45:07.779Z,59.78
2023-03-27T16:47:34.834Z,59.99
2023-03-27T16:52:34.426Z,60.04
2023-03-27T16:55:01.974Z,60.05
2023-03-27T16:57:28.807Z,59.88
2023-03-27T16:59:55.383Z,59.92
2023-03-27T17:02:21.893Z,59.94
2023-03-27T17:04:48.586Z,60.04
2023-03-27T17:07:15.874Z,60.08
2023-03-27T17:09:42.320Z,59.88
2023-03-27T17:12:10.370Z,59.71
2023-03-27T17:14:37.260Z,59.69
2023-03-27T17:17:03.826Z,59.46
2023-03-27T17:19:30.373Z,59.29
2023-03-27T17:21:56.873Z,59.37
2023-03-27T17:24:23.281Z,59.55
2023-03-27T17:26:49.751Z,59.13
2023-03-27T17:29:16.759Z,59.31
2023-03-27T17:31:43.415Z,58.94
2023-03-27T17:34:09.941Z,59.20
2023-03-27T17:36:44.840Z,58.93
2023-03-27T17:39:16.204Z,59.10
2023-03-27T17:41:42.624Z,58.90
2023-03-27T17:44:11.635Z,59.04
2023-03-27T17:46:38.233Z,59.16
2023-03-27T17:49:05.022Z,59.09
2023-03-27T17:51:31.543Z,58.88
2023-03-27T17:53:58.397Z,59.10
2023-03-27T17:56:24.900Z,59.20
2023-03-27T17:58:51.530Z,58.99
2023-03-27T18:01:21.058Z,58.74
2023-03-27T18:03:48.549Z,58.78
2023-03-27T18:06:19.660Z,59.09
2023-03-27T18:08:46.752Z,58.88
2023-03-27T18:11:15.686Z,58.88
2023-03-27T18:13:42.810Z,59.31
2023-03-27T18:16:10.747Z,59.24
2023-03-27T18:18:39.111Z,59.51
2023-03-27T18:21:07.846Z,59.49
2023-03-27T18:23:35.158Z,59.38
2023-03-27T18:26:06.732Z,59.48
2023-03-27T18:28:34.135Z,59.33
2023-03-27T18:31:08.242Z,59.67
2023-03-27T18:33:35.360Z,59.51
2023-03-27T18:36:02.981Z,59.39
2023-03-27T18:38:29.874Z,59.91
2023-03-27T18:40:57.777Z,59.72
2023-03-27T18:43:24.542Z,59.68
2023-03-27T18:46:04.839Z,59.96
2023-03-27T18:48:31.532Z,59.72
2023-03-27T18:51:01.225Z,60.10
2023-03-27T18:53:29.212Z,60.07
2023-03-27T18:55:58.272Z,60.40
2023-03-27T18:58:27.399Z,60.74
2023-03-27T19:00:55.619Z,60.36
2023-03-27T19:03:24.398Z,60.47
2023-03-27T19:05:52.565Z,60.65
2023-03-27T19:08:21.347Z,60.41
2023-03-27T19:10:47.942Z,60.63
2023-03-27T19:13:22.899Z,60.81
2023-03-27T19:16:19.884Z,60.97
2023-03-27T19:19:15.272Z,61.03
2023-03-27T19:22:09.918Z,61.11
2023-03-27T19:24:41.666Z,61.20
2023-03-27T19:27:23.193Z,61.03
2023-03-27T19:29:51.885Z,60.85
2023-03-27T19:32:18.377Z,61.15
2023-03-27T19:34:44.894Z,60.73
2023-03-27T19:37:11.373Z,60.84
2023-03-27T19:39:38.034Z,60.83
2023-03-27T19:42:04.874Z,61.09
2023-03-27T19:44:34.390Z,60.87
2023-03-27T19:47:03.512Z,61.12
2023-03-27T19:49:33.248Z,60.96
2023-03-27T19:52:19.807Z,61.31
2023-03-27T19:54:47.019Z,61.18
2023-03-27T19:57:13.564Z,61.28
2023-03-27T19:59:40.165Z,61.20
2023-03-27T20:02:07.393Z,61.41
2023-03-27T20:04:34.141Z,61.14
2023-03-27T20:07:02.195Z,61.13
2023-03-27T20:09:28.952Z,61.43
2023-03-27T20:11:55.769Z,61.55
2023-03-27T20:14:22.312Z,61.59
2023-03-27T20:16:50.930Z,61.36
2023-03-27T20:19:18.369Z,61.37
2023-03-27T20:21:46.691Z,61.35
2023-03-27T20:24:17.133Z,61.66
2023-03-27T20:26:52.381Z,61.56
2023-03-27T20:29:23.871Z,61.58
2023-03-27T20:31:50.466Z,61.76
2023-03-27T20:34:19.434Z,61.88
2023-03-27T20:36:46.426Z,61.89
2023-03-27T20:39:27.776Z,61.91
2023-03-27T20:41:58.738Z,62.20
2023-03-27T20:44:35.367Z,62.20
2023-03-27T20:47:11.176Z,62.49
2023-03-27T20:49:45.276Z,62.21
2023-03-27T20:52:13.053Z,62.16
2023-03-27T20:54:39.537Z,61.94
2023-03-27T20:57:09.436Z,62.33
2023-03-27T20:59:36.297Z,62.16
2023-03-27T21:02:05.086Z,62.21
2023-03-27T21:04:31.802Z,62.42
2023-03-27T21:06:58.546Z,62.55
2023-03-27T21:09:26.653Z,62.40
2023-03-27T21:11:55.158Z,62.33
2023-03-27T21:14:22.334Z,62.34
2023-03-27T21:16:48.982Z,62.65
2023-03-27T21:19:15.817Z,62.14
2023-03-27T21:21:42.382Z,62.36
2023-03-27T21:24:08.861Z,62.74
2023-03-27T21:26:36.348Z,62.34
2023-03-27T21:29:03.364Z,62.64
2023-03-27T21:31:30.188Z,62.36
2023-03-27T21:33:56.710Z,62.67
2023-03-27T21:36:23.215Z,62.43
2023-03-27T21:38:51.065Z,62.57
2023-03-27T21:41:18.119Z,62.65
2023-03-27T21:43:45.139Z,62.52
2023-03-27T21:46:12.039Z,62.64
2023-03-27T21:48:40.781Z,62.67
2023-03-27T21:51:08.779Z,62.80
2023-03-27T21:53:36.044Z,62.98
2023-03-27T21:56:03.277Z,63.06
2023-03-27T21:58:29.946Z,62.78
2023-03-27T22:00:57.604Z,62.81
2023-03-27T22:03:25.571Z,63.14
2023-03-27T22:06:07.862Z,63.10
2023-03-27T22:08:38.818Z,63.01
2023-03-27T22:11:06.126Z,63.09
2023-03-27T22:13:34.861Z,62.97
2023-03-27T22:16:02.839Z,62.82
2023-03-27T22:18:31.299Z,62.89
2023-03-27T22:20:57.736Z,63.13
2023-03-27T22:23:24.201Z,62.92
2023-03-27T22:25:54.695Z,63.01
2023-03-27T22:28:21.186Z,62.94
2023-03-27T22:30:47.887Z,63.14
2023-03-27T22:33:14.417Z,63.24
2023-03-27T22:35:48.212Z,63.12
2023-03-27T22:38:16.326Z,62.98
2023-03-27T22:40:43.074Z,62.86
2023-03-27T22:43:09.598Z,63.16
2023-03-27T22:45:36.323Z,62.95
2023-03-27T22:48:02.935Z,63.41
2023-03-27T22:50:29.450Z,63.32
2023-03-27T22:52:56.147Z,63.23
2023-03-27T22:55:22.560Z,63.28
2023-03-27T22:57:49.019Z,63.40
2023-03-27T23:00:16.283Z,63.54
2023-03-27T23:02:42.831Z,63.76
2023-03-27T23:05:09.642Z,63.67
2023-03-27T23:07:36.165Z,63.91
2023-03-27T23:10:02.669Z,63.44
2023-03-27T23:12:29.149Z,63.73
2023-03-27T23:14:55.620Z,63.54
2023-03-27T23:17:22.143Z,63.73
2023-03-27T23:19:48.801Z,63.52
2023-03-27T23:22:15.274Z,63.47
2023-03-27T23:24:41.739Z,63.50
2023-03-27T23:27:08.570Z,63.82
2023-03-27T23:29:35.374Z,63.68
2023-03-27T23:32:01.933Z,63.74
2023-03-27T23:34:28.469Z,63.55
2023-03-27T23:36:54.962Z,63.50
2023-03-27T23:39:21.401Z,63.45
2023-03-27T23:41:47.834Z,63.50
2023-03-27T23:44:14.317Z,63.64
2023-03-27T23:46:41.018Z,63.54
2023-03-27T23:49:07.512Z,63.37
2023-03-27T23:51:33.957Z,63.36
2023-03-27T23:54:00.698Z,63.50
2023-03-27T23:56:27.236Z,63.45
2023-03-27T23:58:53.746Z,63.08
